Time;durP1;ratioP1;P1;durP2;ratioP2;P2;SDS_P1;SDS_P2;PMS_P1;PMS_P2;Temp;Humidity;BMP_temperature;BMP_pressure;BME280_temperature;BME280_humidity;BME280_pressure;Samples;Min_cycle;Max_cycle;Signal;HPM_P1;HPM_P2
2021/10/02 06:17:34;;;;;;;7.43;4.70;;;15.90;59.60;;;;;;2625442;38;20605;-80
2021/10/02 06:20:00;;;;;;;5.30;4.80;;;14.90;82.50;;;;;;2674673;30;20834;-77
2021/10/02 06:22:26;;;;;;;6.97;6.20;;;14.70;83.40;;;;;;2626983;30;20685;-79
2021/10/02 06:24:52;;;;;;;7.00;6.30;;;14.60;83.60;;;;;;2624083;30;20233;-77
2021/10/02 06:27:18;;;;;;;7.90;6.13;;;14.70;84.00;;;;;;2625314;30;20194;-78
2021/10/02 06:29:45;;;;;;;6.93;6.10;;;14.70;83.40;;;;;;2624168;30;20205;-78
2021/10/02 06:32:12;;;;;;;6.73;6.13;;;14.60;83.40;;;;;;2623877;30;20378;-78
2021/10/02 06:34:37;;;;;;;7.50;6.30;;;14.60;83.20;;;;;;2625171;30;20393;-78
2021/10/02 06:37:03;;;;;;;9.43;6.40;;;14.80;83.20;;;;;;2623831;38;20829;-77
2021/10/02 06:39:29;;;;;;;7.13;5.97;;;14.90;83.00;;;;;;2624673;30;20205;-77
2021/10/02 06:41:55;;;;;;;7.07;4.93;;;14.80;82.50;;;;;;2623421;38;20193;-77
2021/10/02 06:44:26;;;;;;;6.73;5.40;;;15.00;82.80;;;;;;2626863;38;20220;-78
2021/10/02 06:46:52;;;;;;;6.87;6.07;;;15.00;82.10;;;;;;2626043;30;20194;-77
2021/10/02 06:49:21;;;;;;;6.53;5.93;;;15.00;82.30;;;;;;2626446;38;20387;-76
2021/10/02 06:51:52;;;;;;;6.33;5.00;;;15.10;82.20;;;;;;2626847;30;20225;-78
2021/10/02 06:54:19;;;;;;;6.33;5.83;;;15.20;82.00;;;;;;2626303;38;20839;-78
2021/10/02 06:56:45;;;;;;;6.40;5.80;;;14.90;81.60;;;;;;2625786;30;20399;-76
2021/10/02 06:59:10;;;;;;;5.50;5.00;;;15.00;82.00;;;;;;2624195;38;20418;-77
2021/10/02 07:01:38;;;;;;;7.50;5.87;;;14.80;81.20;;;;;;2627594;30;20193;-77
2021/10/02 07:04:04;;;;;;;5.23;4.70;;;14.90;82.40;;;;;;2626002;38;20186;-77
2021/10/02 07:06:29;;;;;;;5.80;4.93;;;15.10;81.60;;;;;;2625978;30;20985;-77
2021/10/02 07:08:55;;;;;;;5.40;4.90;;;15.40;80.70;;;;;;2624368;31;20386;-78
2021/10/02 07:11:21;;;;;;;4.63;4.33;;;15.70;80.30;;;;;;2627274;30;20205;-76
2021/10/02 07:13:49;;;;;;;5.70;5.20;;;15.70;79.30;;;;;;2625364;30;20193;-77
2021/10/02 07:16:21;;;;;;;5.13;4.30;;;15.80;79.80;;;;;;2625102;30;20194;-78
2021/10/02 07:18:47;;;;;;;8.30;6.20;;;16.00;79.00;;;;;;2624639;30;20446;-78
2021/10/02 07:21:14;;;;;;;3.97;3.67;;;16.10;79.20;;;;;;2625070;38;20406;-77
2021/10/02 07:23:40;;;;;;;6.80;3.50;;;16.40;77.40;;;;;;2625486;30;20522;-77
2021/10/02 07:26:07;;;;;;;5.53;3.83;;;16.40;77.40;;;;;;2627232;30;20371;-77
2021/10/02 07:28:33;;;;;;;6.17;2.87;;;16.30;78.00;;;;;;2624952;38;20274;-77
2021/10/02 07:30:59;;;;;;;6.50;3.53;;;16.20;77.90;;;;;;2625019;30;20498;-77
2021/10/02 07:33:28;;;;;;;4.10;3.40;;;15.90;76.90;;;;;;2625191;30;20202;-77
2021/10/02 07:35:58;;;;;;;3.50;3.20;;;16.10;77.80;;;;;;2624850;30;20371;-77
2021/10/02 07:38:24;;;;;;;4.07;2.80;;;16.50;77.50;;;;;;2642471;35;20406;-77
2021/10/02 07:40:51;;;;;;;3.40;3.10;;;16.10;77.10;;;;;;2624120;30;20403;-77
2021/10/02 07:43:17;;;;;;;2.80;2.67;;;16.70;77.10;;;;;;2623790;30;20190;-77
2021/10/02 07:45:44;;;;;;;3.77;2.90;;;16.60;76.10;;;;;;2625475;30;20861;-76
2021/10/02 07:48:16;;;;;;;2.40;2.20;;;16.70;76.20;;;;;;2621423;30;20491;-76
2021/10/02 07:50:41;;;;;;;2.97;2.50;;;16.40;75.40;;;;;;2624857;30;21085;-79
2021/10/02 07:53:07;;;;;;;5.23;2.87;;;16.50;76.80;;;;;;2624979;30;20387;-78
2021/10/02 07:55:33;;;;;;;4.07;2.57;;;16.90;75.50;;;;;;2623773;30;20375;-78
2021/10/02 07:57:59;;;;;;;3.13;2.50;;;16.40;76.20;;;;;;2624513;30;20379;-76
2021/10/02 08:00:25;;;;;;;2.20;2.00;;;16.20;77.20;;;;;;2624885;38;20660;-76
2021/10/02 08:02:52;;;;;;;4.23;2.60;;;16.50;76.00;;;;;;2625044;30;20710;-75
2021/10/02 08:05:21;;;;;;;10.43;2.87;;;16.60;76.40;;;;;;2626598;30;20819;-76
2021/10/02 08:07:48;;;;;;;3.40;2.50;;;16.90;76.00;;;;;;2626003;30;20917;-76
2021/10/02 08:10:20;;;;;;;2.93;2.73;;;17.00;74.00;;;;;;2623773;38;20386;-77
2021/10/02 08:12:48;;;;;;;2.97;2.60;;;17.00;74.00;;;;;;2624817;30;20375;-76
2021/10/02 08:15:14;;;;;;;3.13;2.93;;;16.80;74.60;;;;;;2625959;30;20952;-77
2021/10/02 08:17:42;;;;;;;2.40;2.20;;;17.10;75.10;;;;;;2624887;30;20545;-77
2021/10/02 08:20:15;;;;;;;3.00;2.30;;;17.60;73.60;;;;;;2627542;30;20382;-77
2021/10/02 08:22:50;;;;;;;2.37;2.20;;;17.70;71.60;;;;;;2624488;38;20371;-78
2021/10/02 08:25:18;;;;;;;2.30;2.10;;;17.50;72.10;;;;;;2626671;30;20799;-78
2021/10/02 08:27:45;;;;;;;2.80;2.47;;;17.20;72.80;;;;;;2644421;30;20391;-77
2021/10/02 08:30:13;;;;;;;2.20;2.00;;;17.10;73.80;;;;;;2625214;38;20393;-77
2021/10/02 08:32:38;;;;;;;3.33;2.33;;;17.20;73.50;;;;;;2624520;30;20390;-77
2021/10/02 08:35:09;;;;;;;2.37;2.17;;;17.30;72.30;;;;;;2624927;30;20445;-77
2021/10/02 08:37:35;;;;;;;2.60;2.40;;;17.70;72.30;;;;;;2625000;30;20197;-78
2021/10/02 08:40:05;;;;;;;2.17;1.90;;;17.50;72.30;;;;;;2623553;38;20913;-77
2021/10/02 08:42:35;;;;;;;2.23;2.03;;;17.40;71.70;;;;;;2625788;38;20370;-76
2021/10/02 08:45:02;;;;;;;2.73;2.47;;;18.50;69.80;;;;;;2626124;30;20483;-77
2021/10/02 08:47:30;;;;;;;3.23;2.03;;;18.80;67.40;;;;;;2627824;38;20379;-79
2021/10/02 08:49:57;;;;;;;2.97;2.10;;;18.70;68.90;;;;;;2624518;30;20383;-77
2021/10/02 08:52:23;;;;;;;2.00;1.80;;;18.90;68.50;;;;;;2623489;38;20820;-76
2021/10/02 08:54:50;;;;;;;2.63;1.93;;;19.40;67.10;;;;;;2625902;30;20933;-77
2021/10/02 08:57:22;;;;;;;3.67;2.20;;;20.20;64.60;;;;;;2625819;30;20467;-77
2021/10/02 08:59:50;;;;;;;1.70;1.60;;;20.90;63.10;;;;;;2623025;30;20405;-77
2021/10/02 09:02:17;;;;;;;2.33;2.13;;;21.70;59.30;;;;;;2625936;30;20367;-78
2021/10/02 09:04:44;;;;;;;3.83;2.10;;;22.90;55.70;;;;;;2625750;30;20379;-78
2021/10/02 09:07:12;;;;;;;3.03;1.83;;;22.50;56.70;;;;;;2625208;30;20529;-78
2021/10/02 09:09:38;;;;;;;2.43;2.00;;;21.80;58.40;;;;;;2625034;30;20763;-79
2021/10/02 09:12:10;;;;;;;6.93;1.90;;;22.40;57.40;;;;;;2626335;30;20387;-77
2021/10/02 09:14:38;;;;;;;1.90;1.60;;;22.30;57.00;;;;;;2625109;38;20189;-79
2021/10/02 09:17:04;;;;;;;2.20;2.00;;;22.00;57.30;;;;;;2625630;30;21012;-77
2021/10/02 09:19:32;;;;;;;3.30;2.20;;;21.80;57.10;;;;;;2624894;38;20386;-77
2021/10/02 09:22:05;;;;;;;2.27;2.10;;;21.20;58.20;;;;;;2625564;38;20831;-76
2021/10/02 09:24:33;;;;;;;3.47;2.03;;;21.40;58.20;;;;;;2625543;30;20389;-77
2021/10/02 09:27:00;;;;;;;3.67;2.20;;;21.80;58.40;;;;;;2624641;30;20502;-77
2021/10/02 09:29:41;;;;;;;2.37;2.17;;;21.50;58.10;;;;;;2625686;38;20383;-77
2021/10/02 09:32:10;;;;;;;3.73;2.13;;;22.60;57.70;;;;;;2626486;38;20387;-77
2021/10/02 09:34:48;;;;;;;3.50;2.63;;;23.00;54.30;;;;;;2624267;30;20409;-77
2021/10/02 09:37:20;;;;;;;2.30;1.83;;;22.80;55.10;;;;;;2624764;30;20959;-78
2021/10/02 09:39:47;;;;;;;2.00;1.67;;;22.30;54.90;;;;;;2625843;30;20896;-77
2021/10/02 09:42:26;;;;;;;2.17;2.07;;;22.90;54.20;;;;;;2625421;38;20498;-79
2021/10/02 09:44:58;;;;;;;2.00;1.83;;;22.40;56.20;;;;;;2625490;30;20346;-77
2021/10/02 09:47:24;;;;;;;1.93;1.80;;;21.30;58.90;;;;;;2625768;30;20410;-78
2021/10/02 09:49:53;;;;;;;1.63;1.53;;;20.80;59.50;;;;;;2626393;30;20890;-78
2021/10/02 09:52:37;;;;;;;2.07;1.97;;;20.40;61.20;;;;;;2625899;30;20789;-77
2021/10/02 09:55:19;;;;;;;2.70;2.10;;;20.10;61.80;;;;;;2625752;38;20462;-77
2021/10/02 09:57:51;;;;;;;2.27;2.07;;;21.20;59.90;;;;;;2624636;30;20805;-76
2021/10/02 10:00:24;;;;;;;2.70;1.80;;;22.20;56.60;;;;;;2625616;38;20382;-78
2021/10/02 10:02:50;;;;;;;2.10;2.00;;;21.60;56.40;;;;;;2626364;30;20391;-78
2021/10/02 10:05:18;;;;;;;2.67;2.23;;;22.40;54.70;;;;;;2627151;30;20359;-77
2021/10/02 10:07:53;;;;;;;3.40;2.43;;;22.30;54.80;;;;;;2626959;30;20395;-78
2021/10/02 10:10:20;;;;;;;3.13;2.30;;;20.90;58.00;;;;;;2628683;30;20763;-78
2021/10/02 10:12:46;;;;;;;3.67;3.37;;;21.30;59.20;;;;;;2626351;30;20411;-75
2021/10/02 10:15:27;;;;;;;2.30;2.20;;;20.80;59.50;;;;;;2627255;38;20847;-76
2021/10/02 10:17:53;;;;;;;4.00;2.73;;;21.00;59.60;;;;;;2625513;38;20399;-77
2021/10/02 10:20:28;;;;;;;2.60;2.40;;;20.90;58.30;;;;;;2627219;38;20422;-77
2021/10/02 10:22:58;;;;;;;2.37;2.00;;;20.10;61.20;;;;;;2626797;30;20370;-77
2021/10/02 10:25:25;;;;;;;2.77;2.07;;;20.30;61.50;;;;;;2625503;30;20448;-77
2021/10/02 10:27:58;;;;;;;2.40;2.20;;;20.10;60.80;;;;;;2625952;30;20963;-77
2021/10/02 10:30:26;;;;;;;3.00;2.10;;;19.30;63.20;;;;;;2627409;30;20936;-75
2021/10/02 10:33:07;;;;;;;2.07;1.97;;;18.60;64.80;;;;;;2626648;38;20379;-76
2021/10/02 10:35:36;;;;;;;2.30;2.10;;;18.50;64.70;;;;;;2625206;30;20395;-76
2021/10/02 10:38:04;;;;;;;2.53;1.80;;;18.40;64.60;;;;;;2627014;30;20457;-77
2021/10/02 10:40:30;;;;;;;2.27;2.10;;;18.60;64.80;;;;;;2626530;30;20418;-77
2021/10/02 10:42:57;;;;;;;2.23;2.10;;;18.90;64.90;;;;;;2626390;38;20414;-76
2021/10/02 10:45:24;;;;;;;3.27;2.53;;;19.00;62.90;;;;;;2627094;30;21118;-77
2021/10/02 10:47:51;;;;;;;2.77;2.13;;;19.40;63.80;;;;;;2626128;30;20375;-78
2021/10/02 10:50:19;;;;;;;3.53;2.30;;;19.90;61.70;;;;;;2626778;30;20381;-78
2021/10/02 10:52:47;;;;;;;2.43;2.00;;;19.80;62.20;;;;;;2625798;38;20923;-76
2021/10/02 10:55:19;;;;;;;2.43;2.23;;;19.40;63.20;;;;;;2626811;30;20371;-78
2021/10/02 10:57:46;;;;;;;2.53;2.33;;;19.60;62.70;;;;;;2627223;30;20780;-76
2021/10/02 11:00:27;;;;;;;2.20;1.77;;;19.10;63.50;;;;;;2627074;30;20922;-76
2021/10/02 11:02:54;;;;;;;2.67;2.47;;;18.70;64.60;;;;;;2625379;30;20371;-76
2021/10/02 11:05:43;;;;;;;3.63;2.50;;;18.70;64.90;;;;;;2624826;30;20394;-76
2021/10/02 11:08:11;;;;;;;2.30;2.10;;;18.70;65.00;;;;;;2626711;30;20925;-77
2021/10/02 11:10:42;;;;;;;3.23;1.93;;;19.10;65.00;;;;;;2628274;30;20987;-78
2021/10/02 11:13:27;;;;;;;2.43;2.10;;;19.50;61.60;;;;;;2627586;30;20407;-76
2021/10/02 11:15:53;;;;;;;2.90;2.37;;;20.10;62.30;;;;;;2629130;30;20782;-76
2021/10/02 11:18:47;;;;;;;2.53;2.33;;;19.70;62.20;;;;;;2626051;38;20921;-76
2021/10/02 11:21:16;;;;;;;2.50;1.93;;;19.70;62.70;;;;;;2626446;30;20383;-76
2021/10/02 11:23:59;;;;;;;2.30;2.10;;;19.90;62.80;;;;;;2625936;38;20382;-77
2021/10/02 11:26:27;;;;;;;1.70;1.60;;;19.70;62.30;;;;;;2626408;30;20906;-76
2021/10/02 11:28:57;;;;;;;2.57;1.77;;;19.80;63.00;;;;;;2626948;30;20395;-77
2021/10/02 11:31:24;;;;;;;1.77;1.53;;;19.80;62.80;;;;;;2626231;30;20798;-76
2021/10/02 11:33:58;;;;;;;2.80;1.80;;;20.00;62.50;;;;;;2627651;38;20944;-77
2021/10/02 11:39:13;;;;;;;2.20;2.00;;;20.30;61.60;;;;;;2628896;30;20423;-77
2021/10/02 11:41:44;;;;;;;1.87;1.77;;;20.10;61.00;;;;;;2628579;30;20390;-77
2021/10/02 11:44:10;;;;;;;1.43;1.33;;;19.80;61.60;;;;;;2626849;38;20407;-77
2021/10/02 11:46:36;;;;;;;1.53;1.40;;;19.10;62.50;;;;;;2628471;38;20335;-77
2021/10/02 11:49:17;;;;;;;1.83;1.30;;;19.90;63.20;;;;;;2627391;30;20382;-77
2021/10/02 11:52:02;;;;;;;3.43;1.53;;;19.30;63.20;;;;;;2627573;30;20375;-78
2021/10/02 11:54:28;;;;;;;2.50;1.30;;;19.40;63.90;;;;;;2627561;31;20928;-77
2021/10/02 11:57:14;;;;;;;2.63;2.00;;;19.10;64.60;;;;;;2627834;30;20382;-77
2021/10/02 11:59:46;;;;;;;1.47;1.27;;;19.40;63.40;;;;;;2627663;30;20194;-77
2021/10/02 12:02:14;;;;;;;5.00;1.70;;;19.20;63.10;;;;;;2627812;30;20775;-77
2021/10/02 12:04:40;;;;;;;3.07;1.70;;;19.00;63.60;;;;;;2628393;30;20367;-78
2021/10/02 12:07:07;;;;;;;1.60;1.50;;;19.20;63.10;;;;;;2628066;30;20985;-78
2021/10/02 12:09:33;;;;;;;1.80;1.70;;;20.70;60.10;;;;;;2628167;30;20953;-77
2021/10/02 12:11:59;;;;;;;1.50;1.40;;;22.40;55.30;;;;;;2627250;38;20414;-76
2021/10/02 12:14:27;;;;;;;2.13;1.50;;;23.60;54.00;;;;;;2627856;30;20419;-77
2021/10/02 12:17:03;;;;;;;1.60;1.50;;;23.50;52.50;;;;;;2628880;30;20375;-77
2021/10/02 12:19:32;;;;;;;1.50;1.40;;;23.00;54.30;;;;;;2628222;30;20378;-77
2021/10/02 12:22:04;;;;;;;1.50;1.33;;;22.70;54.70;;;;;;2628385;38;20398;-77
2021/10/02 12:24:39;;;;;;;2.30;1.43;;;22.60;55.40;;;;;;2628172;30;20953;-77
2021/10/02 12:27:15;;;;;;;2.63;1.60;;;21.90;56.10;;;;;;2627595;38;20370;-78
2021/10/02 12:29:42;;;;;;;1.20;1.10;;;21.20;58.30;;;;;;2627592;30;20398;-77
2021/10/02 12:32:14;;;;;;;3.60;1.50;;;21.10;58.90;;;;;;2628155;30;20883;-77
2021/10/02 12:34:44;;;;;;;1.67;1.13;;;21.20;58.90;;;;;;2626899;30;20374;-78
2021/10/02 12:37:19;;;;;;;1.37;1.27;;;20.90;58.70;;;;;;2628074;30;21034;-78
2021/10/02 12:39:58;;;;;;;3.03;1.10;;;20.90;59.60;;;;;;2627196;30;20371;-78
2021/10/02 12:42:32;;;;;;;1.30;1.20;;;21.10;59.80;;;;;;2629070;30;20379;-77
2021/10/02 12:44:58;;;;;;;1.20;1.10;;;19.90;59.90;;;;;;2627277;30;20933;-77
2021/10/02 12:47:26;;;;;;;1.30;1.20;;;19.30;62.90;;;;;;2627319;30;20478;-78
2021/10/02 12:49:54;;;;;;;1.50;1.40;;;19.20;63.30;;;;;;2628688;30;20794;-75
2021/10/02 12:52:21;;;;;;;1.67;1.50;;;19.30;63.80;;;;;;2628751;38;20370;-78
2021/10/02 12:54:57;;;;;;;1.30;1.20;;;19.40;62.50;;;;;;2627764;38;20363;-79
2021/10/02 12:57:29;;;;;;;1.83;1.50;;;19.90;62.40;;;;;;2627570;38;20397;-77
2021/10/02 12:59:58;;;;;;;1.47;1.37;;;20.80;58.90;;;;;;2627846;30;20852;-79
2021/10/02 13:02:28;;;;;;;1.90;1.70;;;21.30;58.60;;;;;;2628282;38;20383;-77
2021/10/02 13:04:56;;;;;;;1.67;1.57;;;22.40;56.60;;;;;;2628410;38;20387;-77
2021/10/02 13:07:37;;;;;;;1.20;1.10;;;21.50;57.20;;;;;;2629569;30;20366;-76
2021/10/02 13:10:12;;;;;;;1.60;1.50;;;20.40;58.90;;;;;;2627714;38;20378;-77
2021/10/02 13:12:43;;;;;;;1.40;1.30;;;20.50;59.60;;;;;;2629039;30;20371;-76
2021/10/02 13:15:30;;;;;;;1.10;1.00;;;21.00;57.80;;;;;;2628503;38;20496;-76
2021/10/02 13:18:07;;;;;;;2.77;1.73;;;20.90;58.10;;;;;;2627311;38;20569;-77
2021/10/02 13:20:53;;;;;;;1.57;1.47;;;20.60;58.40;;;;;;2627419;38;20378;-77
2021/10/02 13:23:34;;;;;;;1.00;1.00;;;20.60;59.00;;;;;;2628987;30;20367;-76
2021/10/02 13:26:01;;;;;;;3.57;1.27;;;20.10;59.30;;;;;;2627164;38;20359;-78
2021/10/02 13:28:29;;;;;;;1.53;1.40;;;20.00;59.30;;;;;;2628351;30;20364;-77
2021/10/02 13:30:57;;;;;;;1.50;1.40;;;20.10;59.80;;;;;;2628774;30;20475;-78
2021/10/02 13:33:24;;;;;;;1.90;1.47;;;19.30;61.10;;;;;;2627736;30;20379;-78
2021/10/02 13:35:51;;;;;;;1.67;1.57;;;19.10;61.80;;;;;;2627270;38;20378;-75
2021/10/02 13:38:29;;;;;;;1.50;1.23;;;19.00;62.40;;;;;;2627179;30;20386;-77
2021/10/02 13:40:59;;;;;;;1.50;1.40;;;19.20;62.50;;;;;;2628955;30;20366;-79
2021/10/02 13:43:27;;;;;;;2.70;1.77;;;19.00;62.90;;;;;;2627805;30;20749;-76
2021/10/02 13:45:53;;;;;;;1.80;1.70;;;18.90;62.70;;;;;;2628288;38;20366;-76
2021/10/02 13:48:29;;;;;;;1.60;1.33;;;18.90;62.80;;;;;;2628724;30;20386;-76
2021/10/02 13:50:58;;;;;;;2.80;1.70;;;19.20;61.80;;;;;;2627286;30;20375;-78
2021/10/02 13:53:25;;;;;;;3.27;1.93;;;19.30;62.60;;;;;;2628367;38;20442;-77
2021/10/02 13:55:55;;;;;;;1.80;1.70;;;18.80;61.40;;;;;;2627469;38;20370;-78
2021/10/02 13:58:23;;;;;;;1.83;1.70;;;18.80;62.00;;;;;;2626670;38;20439;-76
2021/10/02 14:00:50;;;;;;;1.80;1.70;;;19.00;62.70;;;;;;2628831;30;20367;-77
2021/10/02 14:03:16;;;;;;;1.40;1.30;;;19.30;61.50;;;;;;2628664;30;20742;-77
2021/10/02 14:05:41;;;;;;;1.80;1.70;;;19.80;60.70;;;;;;2629246;30;20406;-76
2021/10/02 14:08:08;;;;;;;2.30;1.63;;;19.70;58.90;;;;;;2628140;38;20178;-77
2021/10/02 14:10:34;;;;;;;3.53;1.63;;;19.30;60.00;;;;;;2628213;38;20186;-77
2021/10/02 14:13:00;;;;;;;1.83;1.57;;;19.20;60.40;;;;;;2628399;38;20741;-77
2021/10/02 14:15:26;;;;;;;1.57;1.47;;;18.90;60.00;;;;;;2628100;30;20194;-76
2021/10/02 14:17:51;;;;;;;1.93;1.80;;;18.80;61.70;;;;;;2626835;30;20386;-76
2021/10/02 14:20:18;;;;;;;2.57;1.50;;;19.00;60.80;;;;;;2627100;38;20244;-78
2021/10/02 14:22:44;;;;;;;2.20;1.80;;;18.90;60.90;;;;;;2627692;38;20242;-77
2021/10/02 14:25:12;;;;;;;1.63;1.53;;;18.80;61.30;;;;;;2627257;30;20364;-76
2021/10/02 14:27:43;;;;;;;1.97;1.87;;;18.80;61.50;;;;;;2626807;30;20186;-78
2021/10/02 14:30:10;;;;;;;1.83;1.73;;;18.90;61.60;;;;;;2628495;30;20949;-79
2021/10/02 14:32:37;;;;;;;5.20;1.70;;;18.70;62.30;;;;;;2628912;30;20411;-77
2021/10/02 14:35:04;;;;;;;1.90;1.60;;;18.60;61.40;;;;;;2628361;30;20386;-77
2021/10/02 14:37:29;;;;;;;1.57;1.47;;;18.70;61.80;;;;;;2627169;30;20379;-77
2021/10/02 14:39:56;;;;;;;1.87;1.77;;;18.70;61.40;;;;;;2626535;30;20824;-76
2021/10/02 14:42:22;;;;;;;2.10;1.70;;;19.00;61.00;;;;;;2627366;30;20614;-77
2021/10/02 14:44:48;;;;;;;2.07;1.97;;;18.80;61.50;;;;;;2628241;30;20766;-77
2021/10/02 14:47:16;;;;;;;2.33;1.70;;;18.90;62.10;;;;;;2626874;30;20190;-77
2021/10/02 14:49:41;;;;;;;3.17;1.60;;;18.90;61.60;;;;;;2627371;30;20776;-77
2021/10/02 14:52:08;;;;;;;2.33;2.03;;;18.90;61.40;;;;;;2628958;30;20367;-76
2021/10/02 14:54:34;;;;;;;1.77;1.60;;;18.80;61.70;;;;;;2628293;30;20713;-77
2021/10/02 14:57:02;;;;;;;2.27;1.67;;;18.60;61.80;;;;;;2626647;30;20367;-77
2021/10/02 14:59:29;;;;;;;2.07;1.90;;;18.60;63.00;;;;;;2626536;38;20395;-77
2021/10/02 15:02:00;;;;;;;3.87;2.00;;;18.50;62.60;;;;;;2626208;38;20379;-76
2021/10/02 15:04:26;;;;;;;1.90;1.70;;;18.40;62.60;;;;;;2628532;30;20355;-78
2021/10/02 15:06:52;;;;;;;2.40;1.80;;;18.50;62.40;;;;;;2629491;30;20375;-77
2021/10/02 15:09:18;;;;;;;3.43;1.40;;;18.30;62.60;;;;;;2629283;30;20407;-77
2021/10/02 15:11:45;;;;;;;3.90;1.90;;;18.30;62.90;;;;;;2628426;30;20370;-77
2021/10/02 15:14:12;;;;;;;3.73;2.37;;;18.40;63.20;;;;;;2626998;38;20742;-78
2021/10/02 15:16:40;;;;;;;5.53;1.77;;;18.60;62.80;;;;;;2628681;30;20387;-78
2021/10/02 15:19:07;;;;;;;4.60;2.13;;;18.70;63.20;;;;;;2628129;38;20535;-76
2021/10/02 15:21:55;;;;;;;2.50;1.90;;;18.60;62.40;;;;;;2626919;38;20381;-77
2021/10/02 15:24:24;;;;;;;4.30;1.70;;;18.60;61.80;;;;;;2627916;30;20370;-78
2021/10/02 15:26:55;;;;;;;2.33;2.13;;;18.40;62.90;;;;;;2627991;30;20398;-76
2021/10/02 15:29:24;;;;;;;1.50;1.40;;;18.50;61.90;;;;;;2628197;30;20403;-77
2021/10/02 15:31:57;;;;;;;3.40;1.73;;;18.30;62.50;;;;;;2627903;30;20418;-76
2021/10/02 15:34:24;;;;;;;2.13;1.93;;;18.20;63.10;;;;;;2629092;38;20498;-78
2021/10/02 15:36:51;;;;;;;1.87;1.77;;;18.10;62.20;;;;;;2628389;30;20367;-77
2021/10/02 15:39:21;;;;;;;2.40;2.23;;;18.10;62.10;;;;;;2628134;30;20766;-80
2021/10/02 15:41:59;;;;;;;3.00;1.80;;;18.20;62.40;;;;;;2628241;30;20952;-77
2021/10/02 15:44:30;;;;;;;2.00;1.80;;;18.40;62.50;;;;;;2629548;38;20366;-79
2021/10/02 15:47:02;;;;;;;5.20;2.03;;;18.20;61.80;;;;;;2629326;31;20444;-78
2021/10/02 15:49:36;;;;;;;4.13;2.10;;;18.10;62.20;;;;;;2628832;38;20445;-78
2021/10/02 15:52:07;;;;;;;1.77;1.67;;;18.10;62.80;;;;;;2627857;30;20371;-77
2021/10/02 15:54:37;;;;;;;1.73;1.63;;;18.30;62.40;;;;;;2629255;30;20745;-78
2021/10/02 15:57:10;;;;;;;2.87;2.00;;;18.20;62.20;;;;;;2628504;38;20389;-78
2021/10/02 15:59:46;;;;;;;4.07;2.80;;;18.20;62.30;;;;;;2628819;30;20367;-79
2021/10/02 16:02:52;;;;;;;1.67;1.57;;;17.90;62.40;;;;;;2628472;38;20933;-77
2021/10/02 16:05:36;;;;;;;1.60;1.50;;;17.90;62.60;;;;;;2628971;38;20390;-79
2021/10/02 16:08:05;;;;;;;2.53;2.33;;;17.80;64.20;;;;;;2628431;38;20374;-77
2021/10/02 16:10:50;;;;;;;1.77;1.67;;;17.70;63.90;;;;;;2630208;30;20442;-78
2021/10/02 16:13:27;;;;;;;4.83;1.90;;;17.90;64.00;;;;;;2629188;31;20438;-77
2021/10/02 16:15:54;;;;;;;1.93;1.70;;;17.90;63.70;;;;;;2630650;30;20407;-78
2021/10/02 16:18:20;;;;;;;1.60;1.50;;;18.00;64.20;;;;;;2626239;30;20412;-77
2021/10/02 16:21:21;;;;;;;3.23;2.10;;;18.00;63.60;;;;;;2627704;38;20378;-77
2021/10/02 16:23:52;;;;;;;2.73;2.30;;;17.90;63.90;;;;;;2626488;30;20415;-76
2021/10/02 16:26:20;;;;;;;2.70;2.30;;;17.90;64.10;;;;;;2626799;30;20378;-77
2021/10/02 16:29:04;;;;;;;2.50;2.30;;;17.70;65.00;;;;;;2629198;30;20371;-78
2021/10/02 16:31:30;;;;;;;7.43;6.40;;;18.10;64.30;;;;;;2630356;30;20359;-77
2021/10/02 16:33:57;;;;;;;3.60;2.67;;;17.90;64.80;;;;;;2628764;30;20367;-77
2021/10/02 16:36:26;;;;;;;3.27;2.57;;;18.00;65.00;;;;;;2627277;38;20382;-78
2021/10/02 16:38:53;;;;;;;4.70;2.87;;;17.80;65.40;;;;;;2627168;30;20368;-78
2021/10/02 16:41:20;;;;;;;2.57;2.37;;;17.50;65.80;;;;;;2627943;30;20498;-79
2021/10/02 16:43:46;;;;;;;2.43;2.23;;;17.50;66.10;;;;;;2627739;30;20363;-79
2021/10/02 16:46:12;;;;;;;6.33;3.10;;;17.50;66.50;;;;;;2627185;38;20367;-78
2021/10/02 16:48:39;;;;;;;3.83;3.53;;;17.50;66.80;;;;;;2626817;38;20370;-78
2021/10/02 16:51:05;;;;;;;2.97;2.73;;;17.30;67.00;;;;;;2626882;30;20375;-76
2021/10/02 16:53:34;;;;;;;3.20;2.90;;;17.40;66.80;;;;;;2628442;30;20382;-78
2021/10/02 16:56:02;;;;;;;3.57;3.30;;;17.40;66.90;;;;;;2629107;30;20942;-77
2021/10/02 16:58:28;;;;;;;3.13;2.77;;;17.60;67.00;;;;;;2627513;30;20391;-76
2021/10/02 17:00:54;;;;;;;5.63;3.47;;;17.50;67.80;;;;;;2629871;30;21001;-76
2021/10/02 17:03:20;;;;;;;3.30;3.00;;;17.50;67.30;;;;;;2630003;30;20383;-77
2021/10/02 17:05:46;;;;;;;3.03;2.77;;;17.60;67.30;;;;;;2629496;30;20962;-77
2021/10/02 17:08:18;;;;;;;6.87;2.80;;;17.60;67.10;;;;;;2628372;38;20398;-77
2021/10/02 17:10:45;;;;;;;5.40;2.90;;;17.60;66.90;;;;;;2629817;30;20709;-76
2021/10/02 17:13:12;;;;;;;6.07;3.30;;;17.70;66.70;;;;;;2628166;30;20364;-76
2021/10/02 17:15:40;;;;;;;4.40;2.83;;;17.80;66.70;;;;;;2627579;30;20363;-79
2021/10/02 17:18:06;;;;;;;4.10;2.47;;;17.70;66.40;;;;;;2627526;30;20379;-77
2021/10/02 17:20:32;;;;;;;2.53;2.33;;;17.70;66.70;;;;;;2628486;30;20363;-76
2021/10/02 17:22:58;;;;;;;3.67;3.37;;;17.80;66.50;;;;;;2627120;38;21076;-77
2021/10/02 17:25:24;;;;;;;3.33;2.70;;;17.80;66.80;;;;;;2627756;30;20203;-77
2021/10/02 17:27:51;;;;;;;3.53;3.03;;;17.60;67.20;;;;;;2628239;30;21011;-76
2021/10/02 21:54:34;;;;;;;3.90;2.90;;;17.70;67.00;;;;;;2643665;30;21229;-79
2021/10/02 21:57:02;;;;;;;4.17;3.40;;;17.80;73.80;;;;;;2623926;30;20412;-79
2021/10/02 21:59:35;;;;;;;3.17;2.60;;;17.90;73.60;;;;;;2626348;30;20363;-78
2021/10/02 22:02:02;;;;;;;3.80;3.30;;;17.90;73.50;;;;;;2624706;30;20882;-79
2021/10/02 22:04:28;;;;;;;3.03;2.63;;;17.90;73.20;;;;;;2624803;38;20371;-79
2021/10/02 22:06:54;;;;;;;4.80;2.77;;;18.00;73.40;;;;;;2625536;30;20394;-77
2021/10/02 22:09:21;;;;;;;4.70;3.50;;;18.10;73.00;;;;;;2626945;30;20356;-80
2021/10/02 22:11:50;;;;;;;4.23;3.00;;;18.10;72.60;;;;;;2625747;38;21036;-80
2021/10/02 22:14:17;;;;;;;5.30;3.17;;;18.20;72.60;;;;;;2626849;38;20406;-79
2021/10/02 22:16:44;;;;;;;4.90;3.60;;;18.20;72.40;;;;;;2624855;38;20367;-80
2021/10/02 22:19:11;;;;;;;7.00;5.83;;;18.30;72.70;;;;;;2626267;38;20371;-79
2021/10/02 22:21:37;;;;;;;3.20;2.90;;;18.40;72.60;;;;;;2625953;38;20395;-79
2021/10/02 22:24:08;;;;;;;8.60;3.70;;;18.40;72.20;;;;;;2626634;30;20789;-80
2021/10/02 22:26:56;;;;;;;3.73;3.20;;;18.30;72.10;;;;;;2625497;30;20382;-79
2021/10/02 22:29:22;;;;;;;4.50;3.83;;;18.40;72.80;;;;;;2627925;30;20824;-80
2021/10/02 22:31:48;;;;;;;5.47;3.60;;;18.30;72.60;;;;;;2626503;30;20367;-81
2021/10/02 22:34:15;;;;;;;7.93;3.90;;;18.30;73.20;;;;;;2626678;30;20399;-80
2021/10/02 22:36:43;;;;;;;3.60;3.30;;;18.20;73.50;;;;;;2629070;30;20445;-80
2021/10/02 22:39:11;;;;;;;5.67;3.90;;;18.20;73.80;;;;;;2625336;30;21301;-81
2021/10/02 22:41:37;;;;;;;6.20;3.53;;;18.10;73.80;;;;;;2625299;30;20804;-81
2021/10/02 22:44:05;;;;;;;3.97;3.40;;;18.20;73.70;;;;;;2624798;30;20868;-79
2021/10/02 22:46:31;;;;;;;3.93;3.53;;;18.10;73.70;;;;;;2625403;30;20541;-79
2021/10/02 22:48:58;;;;;;;4.63;3.57;;;18.20;73.60;;;;;;2626908;30;20374;-80
2021/10/02 22:51:26;;;;;;;6.10;3.57;;;18.30;73.30;;;;;;2625843;30;20901;-80
2021/10/02 22:53:52;;;;;;;4.90;3.30;;;18.40;73.60;;;;;;2625360;30;20379;-81
2021/10/02 22:56:24;;;;;;;4.53;3.40;;;18.40;73.20;;;;;;2626819;30;20904;-80
2021/10/02 22:58:50;;;;;;;3.70;3.30;;;18.40;73.40;;;;;;2624891;38;20816;-81
2021/10/02 23:01:16;;;;;;;6.70;2.87;;;18.40;73.20;;;;;;2626158;30;20394;-80
2021/10/02 23:03:42;;;;;;;3.40;3.10;;;18.40;73.80;;;;;;2625425;30;20205;-80
2021/10/02 23:06:08;;;;;;;4.17;3.77;;;18.30;73.70;;;;;;2627000;30;20231;-79
2021/10/02 23:08:34;;;;;;;4.70;2.93;;;18.40;73.40;;;;;;2625354;38;20729;-79
2021/10/02 23:10:59;;;;;;;4.03;3.63;;;18.50;73.00;;;;;;2627797;30;20190;-79
2021/10/02 23:13:25;;;;;;;4.33;3.53;;;18.70;72.30;;;;;;2625433;30;20297;-82
2021/10/02 23:16:00;;;;;;;4.73;4.30;;;19.00;71.40;;;;;;2626127;30;20988;-80
2021/10/02 23:18:33;;;;;;;4.87;3.60;;;18.90;70.80;;;;;;2626670;38;20832;-81
2021/10/02 23:21:07;;;;;;;4.67;3.80;;;19.10;70.70;;;;;;2626407;30;20471;-80
2021/10/02 23:23:34;;;;;;;5.20;4.03;;;19.10;70.60;;;;;;2627125;30;20402;-80
2021/10/02 23:26:00;;;;;;;4.03;3.07;;;19.00;70.30;;;;;;2626014;30;20403;-80
2021/10/02 23:28:29;;;;;;;4.03;3.50;;;19.10;70.40;;;;;;2627289;30;20398;-81
2021/10/02 23:31:00;;;;;;;7.53;3.47;;;19.00;70.70;;;;;;2629245;30;20181;-80
2021/10/02 23:33:29;;;;;;;3.40;3.10;;;18.90;71.40;;;;;;2627799;38;20371;-81
2021/10/02 23:35:58;;;;;;;6.00;4.23;;;18.80;71.80;;;;;;2627059;38;20371;-80
2021/10/02 23:38:28;;;;;;;4.03;3.63;;;18.80;72.90;;;;;;2627571;30;21001;-81
2021/10/02 23:40:56;;;;;;;7.13;3.53;;;18.60;72.50;;;;;;2628568;31;20373;-80
2021/10/02 23:43:22;;;;;;;3.47;3.27;;;18.50;73.80;;;;;;2627368;38;20948;-80